Time;durP1;ratioP1;P1;durP2;ratioP2;P2;SDS_P1;SDS_P2;PMS_P1;PMS_P2;Temp;Humidity;BMP_temperature;BMP_pressure;BME280_temperature;BME280_humidity;BME280_pressure;Samples;Min_cycle;Max_cycle;Signal;HPM_P1;HPM_P2
2023/05/09 00:04:12;;;;;;;16.60;15.00;;;;;;;16.22;58.25;100049.72;10356505;28;20236;-38
2023/05/09 00:09:13;;;;;;;17.00;15.23;;;;;;;15.49;59.84;100037.31;10353212;28;20253;-39
2023/05/09 00:14:17;;;;;;;16.40;14.63;;;;;;;17.02;57.77;100148.44;10352800;28;20241;-38
2023/05/09 00:19:18;;;;;;;16.27;14.53;;;;;;;16.06;58.16;100034.84;10350456;28;21966;-38
2023/05/09 00:24:20;;;;;;;18.10;16.40;;;;;;;15.63;59.67;100060.53;10357378;28;20243;-38
2023/05/09 00:29:22;;;;;;;16.37;14.87;;;;;;;16.44;57.99;100071.88;10354340;28;20241;-38
2023/05/09 00:34:24;;;;;;;17.27;15.57;;;;;;;15.82;59.26;100034.53;10349053;28;20233;-38
2023/05/09 00:39:26;;;;;;;16.40;14.70;;;;;;;18.59;53.52;100153.59;10350906;28;20683;-38
2023/05/09 00:44:28;;;;;;;16.80;15.03;;;;;;;16.27;57.44;100000.53;10351118;28;20283;-38
2023/05/09 00:49:30;;;;;;;16.70;15.00;;;;;;;17.47;55.91;100077.97;10348006;28;20944;-38
2023/05/09 00:54:31;;;;;;;16.83;14.67;;;;;;;16.33;57.53;100027.50;10352351;28;21379;-38
2023/05/09 00:59:33;;;;;;;16.50;14.90;;;;;;;15.82;58.90;100004.84;10351359;28;20248;-38
2023/05/09 01:04:36;;;;;;;17.67;14.87;;;;;;;17.48;55.74;100082.34;10352313;28;20343;-38
2023/05/09 01:10:00;;;;;;;16.17;13.90;;;;;;;18.04;53.65;100089.44;10348965;28;20233;-38
2023/05/09 01:15:11;;;;;;;15.77;14.13;;;;;;;16.85;56.12;100024.59;10352982;28;20229;-38
2023/05/09 01:20:18;;;;;;;14.87;13.40;;;;;;;17.65;54.85;100069.91;10346456;28;20269;-38
2023/05/09 01:25:40;;;;;;;14.60;13.17;;;;;;;18.31;52.73;100062.06;10349953;28;20328;-38
2023/05/09 01:30:45;;;;;;;14.07;12.43;;;;;;;18.54;52.53;100036.09;10347957;28;20252;-38
2023/05/09 01:35:52;;;;;;;13.57;12.27;;;;;;;17.66;53.54;99957.91;10345947;28;20229;-38
2023/05/09 01:40:57;;;;;;;13.07;11.77;;;;;;;18.40;52.18;99984.81;10343515;28;20241;-39
2023/05/09 01:45:59;;;;;;;13.20;11.80;;;;;;;18.07;52.68;99959.03;10352200;28;20252;-38
2023/05/09 01:51:04;;;;;;;13.27;11.97;;;;;;;19.02;50.75;100025.13;10349909;28;20619;-38
2023/05/09 01:56:07;;;;;;;12.30;11.00;;;;;;;17.97;52.74;99953.34;10349062;28;20240;-38
2023/05/09 02:01:09;;;;;;;12.03;10.87;;;;;;;18.37;52.12;99963.63;10347638;28;20244;-38
2023/05/09 02:06:12;;;;;;;12.40;11.20;;;;;;;18.63;50.98;99956.13;10349082;28;20237;-38
2023/05/09 02:11:14;;;;;;;12.63;11.40;;;;;;;18.84;50.34;99969.09;10349152;28;20238;-39
2023/05/09 02:16:17;;;;;;;14.17;11.60;;;;;;;17.20;53.36;99888.13;10350020;28;20245;-38
2023/05/09 02:21:21;;;;;;;12.67;11.47;;;;;;;17.85;52.39;99925.38;10347990;28;20316;-38
2023/05/09 02:26:27;;;;;;;12.27;11.00;;;;;;;18.31;51.72;99940.16;10349603;28;20599;-39
2023/05/09 02:31:30;;;;;;;13.07;11.73;;;;;;;17.29;53.49;99924.59;10345036;28;20259;-39
2023/05/09 02:36:33;;;;;;;13.47;12.13;;;;;;;18.44;51.16;99941.84;10344381;28;20669;-38
2023/05/09 02:41:35;;;;;;;13.23;11.93;;;;;;;18.21;52.35;99946.09;10348142;28;20237;-38
2023/05/09 02:46:37;;;;;;;15.17;12.30;;;;;;;17.99;52.06;99910.63;10348116;28;20316;-38
2023/05/09 02:51:39;;;;;;;13.97;12.50;;;;;;;18.07;52.19;99909.47;10338739;28;20349;-38
2023/05/09 02:56:40;;;;;;;12.97;11.27;;;;;;;17.75;52.79;99915.13;10316277;28;20234;-38
2023/05/09 03:01:42;;;;;;;12.53;11.17;;;;;;;17.34;53.25;99887.72;10312591;28;20248;-38
2023/05/09 03:06:44;;;;;;;14.33;12.90;;;;;;;17.58;52.87;99885.13;10307992;28;20353;-38
2023/05/09 03:11:46;;;;;;;12.20;11.00;;;;;;;18.45;51.20;99919.91;10314437;28;20241;-38
2023/05/09 03:16:47;;;;;;;14.67;13.27;;;;;;;16.89;55.00;99906.09;10315597;28;20271;-38
2023/05/09 03:21:49;;;;;;;14.60;12.50;;;;;;;18.43;51.48;99894.94;10314727;28;20237;-38
2023/05/09 03:26:51;;;;;;;13.43;12.03;;;;;;;17.63;52.71;99830.34;10314056;28;20233;-38
2023/05/09 03:31:52;;;;;;;14.27;12.50;;;;;;;17.30;53.99;99878.41;10309378;23;20242;-42
2023/05/09 03:36:54;;;;;;;14.43;12.30;;;;;;;17.85;52.22;99855.00;10276651;28;20230;-43
2023/05/09 03:41:56;;;;;;;13.53;11.23;;;;;;;17.96;52.67;99892.13;10272654;28;20783;-44
2023/05/09 03:46:57;;;;;;;13.20;11.90;;;;;;;16.21;54.87;99805.94;10273387;28;20235;-41
2023/05/09 03:51:59;;;;;;;14.53;11.93;;;;;;;17.55;53.14;99858.53;10268861;28;20243;-41
2023/05/09 03:57:01;;;;;;;11.97;10.77;;;;;;;16.97;54.37;99882.34;10269561;28;20230;-41
2023/05/09 04:02:02;;;;;;;13.40;12.00;;;;;;;17.46;53.26;99885.09;10270039;28;21344;-42
2023/05/09 04:07:04;;;;;;;13.40;12.00;;;;;;;15.20;57.38;99769.88;10268158;28;20711;-41
2023/05/09 04:12:06;;;;;;;16.37;14.07;;;;;;;15.27;59.21;99880.38;10274841;28;20253;-42
2023/05/09 04:17:08;;;;;;;15.70;14.00;;;;;;;17.83;52.71;99854.41;10298619;28;20230;-41
2023/05/09 04:22:10;;;;;;;15.17;13.67;;;;;;;17.47;53.32;99853.44;10301764;28;20242;-43
2023/05/09 04:27:11;;;;;;;13.93;12.53;;;;;;;17.28;54.52;99890.53;10308256;28;20242;-41
2023/05/09 04:32:13;;;;;;;15.00;13.53;;;;;;;17.71;52.69;99848.97;10283541;28;20250;-43
2023/05/09 04:37:15;;;;;;;17.00;15.20;;;;;;;17.35;54.10;99886.66;10304144;28;20226;-42
2023/05/09 04:42:17;;;;;;;16.80;15.13;;;;;;;18.56;51.48;99896.63;10313511;28;20246;-40
2023/05/09 04:47:19;;;;;;;16.07;14.23;;;;;;;17.32;53.44;99822.19;10312878;28;20596;-41
2023/05/09 04:52:21;;;;;;;16.57;14.80;;;;;;;16.55;55.60;99843.44;10314625;28;20242;-41
2023/05/09 04:57:23;;;;;;;17.43;15.73;;;;;;;16.02;56.98;99840.13;10315321;28;20230;-42
2023/05/09 05:02:24;;;;;;;18.60;16.60;;;;;;;17.94;53.73;99856.34;10313082;28;20620;-42
2023/05/09 05:07:28;;;;;;;18.27;16.47;;;;;;;18.35;53.29;99872.78;10312763;28;20268;-41
2023/05/09 05:12:30;;;;;;;16.60;14.90;;;;;;;17.24;54.15;99795.50;10314025;28;20234;-41
2023/05/09 05:17:32;;;;;;;16.77;14.87;;;;;;;17.57;54.40;99823.16;10309380;28;20230;-43
2023/05/09 05:22:35;;;;;;;18.60;16.10;;;;;;;18.12;53.53;99857.31;10313293;28;20237;-43
2023/05/09 05:27:36;;;;;;;17.93;16.03;;;;;;;17.30;55.07;99808.09;10312368;28;20234;-42
2023/05/09 05:32:38;;;;;;;18.50;16.37;;;;;;;17.35;55.53;99837.16;10312153;28;20248;-42
2023/05/09 05:37:41;;;;;;;19.63;17.73;;;;;;;17.32;55.65;99803.28;10309492;28;20238;-40
2023/05/09 05:42:43;;;;;;;21.20;17.43;;;;;;;17.45;55.81;99837.44;10313006;28;20234;-42
2023/05/09 05:47:45;;;;;;;19.27;17.37;;;;;;;16.76;57.05;99804.38;10311421;28;20364;-43
2023/05/09 05:52:47;;;;;;;20.33;18.13;;;;;;;16.66;57.73;99821.09;10309199;28;20726;-42
2023/05/09 05:57:49;;;;;;;20.87;18.63;;;;;;;17.73;56.10;99868.50;10309862;28;20242;-42
2023/05/09 06:02:50;;;;;;;20.33;18.33;;;;;;;17.69;55.21;99845.69;10312144;28;20230;-42
2023/05/09 06:07:52;;;;;;;21.73;19.53;;;;;;;16.49;58.17;99791.16;10306893;28;20240;-41
2023/05/09 06:12:54;;;;;;;22.57;19.47;;;;;;;17.23;56.99;99791.13;10310776;28;20623;-41
2023/05/09 06:17:55;;;;;;;23.50;20.37;;;;;;;17.82;55.86;99810.28;10309109;28;20229;-40
2023/05/09 06:22:57;;;;;;;21.83;19.33;;;;;;;17.18;56.95;99761.25;10309966;28;20655;-42
2023/05/09 06:27:59;;;;;;;22.23;20.07;;;;;;;17.14;57.51;99778.97;10307302;28;20230;-42
2023/05/09 06:33:01;;;;;;;22.03;19.10;;;;;;;17.25;57.80;99783.63;10338812;28;20272;-42
2023/05/09 06:38:03;;;;;;;20.03;18.03;;;;;;;17.57;56.98;99769.03;10354042;28;20287;-42
2023/05/09 06:43:05;;;;;;;19.23;17.33;;;;;;;17.71;56.70;99773.19;10342876;28;20726;-41
2023/05/09 06:48:07;;;;;;;18.70;16.87;;;;;;;17.60;56.82;99750.44;10347698;28;20576;-42
2023/05/09 06:53:08;;;;;;;16.07;14.47;;;;;;;17.69;57.29;99791.56;10352217;28;20250;-42
2023/05/09 06:58:10;;;;;;;16.47;14.77;;;;;;;16.84;57.97;99704.09;10348203;28;20237;-42
2023/05/09 07:03:12;;;;;;;15.73;14.23;;;;;;;17.80;56.66;99762.84;10349280;28;20256;-41
2023/05/09 07:08:14;;;;;;;15.90;14.30;;;;;;;17.40;58.00;99758.88;10346790;28;20240;-41
2023/05/09 07:13:16;;;;;;;14.23;12.80;;;;;;;17.10;58.24;99754.28;10308899;28;20827;-42
2023/05/09 07:18:17;;;;;;;12.67;11.53;;;;;;;18.04;55.58;99734.75;10304667;28;20226;-44
2023/05/09 07:23:19;;;;;;;12.73;11.53;;;;;;;18.72;54.92;99778.53;10333847;28;20233;-43
2023/05/09 07:28:21;;;;;;;12.17;11.07;;;;;;;18.82;54.16;99772.50;10348940;28;20245;-42
2023/05/09 07:33:22;;;;;;;12.63;11.43;;;;;;;17.60;56.77;99707.16;10346686;28;20225;-44
2023/05/09 07:38:25;;;;;;;12.33;11.13;;;;;;;17.28;57.28;99669.59;10348983;28;20610;-44
2023/05/09 07:43:27;;;;;;;11.43;10.33;;;;;;;18.32;55.46;99689.06;10346628;28;20245;-41
2023/05/09 07:48:28;;;;;;;10.80;9.70;;;;;;;18.33;56.03;99704.28;10352313;28;20218;-41
2023/05/09 07:53:30;;;;;;;9.87;8.87;;;;;;;18.60;54.60;99691.84;10354160;28;20229;-42
2023/05/09 07:58:32;;;;;;;10.67;9.23;;;;;;;18.43;54.76;99648.41;10326599;28;20218;-43
2023/05/09 08:03:34;;;;;;;11.40;10.20;;;;;;;18.20;55.75;99646.59;10315406;28;20241;-41
2023/05/09 08:08:35;;;;;;;11.50;10.30;;;;;;;18.28;55.42;99667.88;10315109;28;20218;-43
2023/05/09 08:13:39;;;;;;;12.00;10.20;;;;;;;19.83;52.35;99695.94;10315811;28;20230;-42
2023/05/09 08:18:41;;;;;;;10.43;9.43;;;;;;;19.56;53.32;99658.63;10317872;28;20833;-44
2023/05/09 08:23:42;;;;;;;11.27;10.17;;;;;;;18.43;54.61;99628.63;10360491;28;20255;-43
2023/05/09 08:28:44;;;;;;;9.30;8.30;;;;;;;18.90;53.84;99647.41;10357915;28;20217;-42
2023/05/09 08:33:46;;;;;;;10.23;9.13;;;;;;;18.69;53.88;99613.69;10392901;28;20239;-42
2023/05/09 08:38:48;;;;;;;9.57;8.65;;;;;;;19.39;52.70;99639.59;10392419;28;20243;-42
2023/05/09 08:43:50;;;;;;;10.90;8.43;;;;;;;19.00;54.17;99620.50;10394789;28;20243;-41
2023/05/09 08:48:52;;;;;;;8.77;7.87;;;;;;;19.47;52.68;99618.53;10392536;28;20243;-41
2023/05/09 08:53:54;;;;;;;8.55;7.68;;;;;;;19.38;52.47;99588.28;10392301;28;20740;-41
2023/05/09 08:58:56;;;;;;;7.72;7.03;;;;;;;18.56;53.94;99562.53;10394275;28;20256;-41
2023/05/09 09:03:58;;;;;;;9.15;6.95;;;;;;;19.86;51.62;99588.75;10395201;28;20237;-41
2023/05/09 09:09:00;;;;;;;8.50;7.60;;;;;;;19.12;53.51;99597.94;10389844;28;20228;-42
2023/05/09 09:14:12;;;;;;;10.80;8.70;;;;;;;19.33;52.64;99570.06;10376150;28;20241;-42
2023/05/09 09:19:16;;;;;;;7.93;7.15;;;;;;;19.04;53.64;99553.06;10391355;28;20270;-41
2023/05/09 09:24:21;;;;;;;7.80;7.00;;;;;;;19.95;52.38;99593.47;10393217;28;20244;-42
2023/05/09 09:29:27;;;;;;;7.40;6.68;;;;;;;19.30;53.44;99553.44;10390219;28;20232;-41
2023/05/09 09:34:29;;;;;;;6.40;5.55;;;;;;;20.09;50.97;99571.38;10392326;28;20245;-42
2023/05/09 09:39:30;;;;;;;6.95;4.93;;;;;;;18.82;52.27;99499.53;10394918;28;20350;-41
2023/05/09 09:44:32;;;;;;;5.82;5.22;;;;;;;18.41;53.25;99514.28;10390151;28;20244;-41
2023/05/09 09:49:34;;;;;;;7.60;4.82;;;;;;;18.07;53.63;99478.97;10394243;28;20228;-43
2023/05/09 09:54:37;;;;;;;6.28;5.68;;;;;;;20.27;51.37;99538.47;10393245;28;20591;-41
2023/05/09 09:59:39;;;;;;;6.72;5.25;;;;;;;19.26;52.33;99492.63;10393284;28;20228;-41
2023/05/09 10:04:42;;;;;;;6.60;5.43;;;;;;;20.08;49.64;99472.78;10391269;28;20232;-41
2023/05/09 10:09:44;;;;;;;6.47;5.30;;;;;;;19.85;51.87;99486.66;10391262;28;20247;-41
2023/05/09 10:14:47;;;;;;;7.40;5.50;;;;;;;19.02;52.68;99427.75;10391783;28;20575;-42
2023/05/09 10:19:49;;;;;;;7.05;6.10;;;;;;;20.74;51.49;99501.69;10388695;28;20241;-42
2023/05/09 10:25:05;;;;;;;6.38;5.78;;;;;;;19.16;52.19;99430.94;10391172;28;20236;-41
2023/05/09 10:30:11;;;;;;;6.07;5.47;;;;;;;20.17;50.86;99363.72;10388414;28;20366;-42
2023/05/09 10:35:15;;;;;;;13.43;5.50;;;;;;;19.26;52.11;99376.00;10388185;28;20706;-41
2023/05/09 10:40:18;;;;;;;6.32;5.38;;;;;;;19.63;50.94;99356.38;10392484;28;20239;-42
2023/05/09 10:45:21;;;;;;;5.55;5.05;;;;;;;20.67;49.42;99385.00;10389787;28;20304;-42
2023/05/09 10:50:24;;;;;;;6.38;5.13;;;;;;;20.45;50.04;99395.19;10390967;28;20327;-40
2023/05/09 10:55:36;;;;;;;5.53;5.00;;;;;;;20.18;51.03;99379.75;10389052;28;20207;-42
2023/05/09 11:06:51;;;;;;;4.65;4.20;;;;;;;17.02;57.69;99445.63;10419782;27;1995532;-67
2023/05/09 11:11:56;;;;;;;6.07;4.70;;;;;;;17.50;57.23;99447.22;10417864;28;20238;-69
2023/05/09 11:17:03;;;;;;;7.38;4.40;;;;;;;18.07;55.33;99379.63;10420570;28;20227;-67
2023/05/09 11:22:15;;;;;;;5.20;4.70;;;;;;;17.91;56.72;99385.81;10420414;28;20399;-67
2023/05/09 11:27:22;;;;;;;5.43;4.72;;;;;;;17.66;56.00;99367.22;10416440;28;20274;-67
2023/05/09 11:32:31;;;;;;;5.72;5.05;;;;;;;18.61;55.10;99400.03;10419876;28;20232;-67
2023/05/09 11:37:32;;;;;;;5.30;4.80;;;;;;;18.77;54.78;99390.22;10417872;28;20355;-69
2023/05/09 11:42:34;;;;;;;5.28;4.78;;;;;;;18.74;53.17;99361.75;10421706;28;20228;-67
2023/05/09 11:47:37;;;;;;;5.28;4.78;;;;;;;19.27;53.20;99386.59;10418339;28;20228;-69
2023/05/09 11:52:40;;;;;;;4.53;4.10;;;;;;;19.57;52.35;99375.31;10419815;28;20319;-67
2023/05/09 11:57:45;;;;;;;5.75;5.07;;;;;;;19.05;54.60;99326.09;10417987;28;20635;-69
2023/05/09 12:02:48;;;;;;;6.05;5.40;;;;;;;19.38;53.93;99307.00;10420433;28;20250;-69
2023/05/09 12:07:51;;;;;;;6.88;5.22;;;;;;;19.29;54.20;99262.41;10417139;28;20233;-69
2023/05/09 12:12:54;;;;;;;5.97;5.38;;;;;;;18.99;54.51;99276.44;10420784;28;20258;-69
2023/05/09 12:18:04;;;;;;;6.93;5.50;;;;;;;18.74;55.49;99282.31;10391132;28;20232;-69
2023/05/09 12:23:06;;;;;;;6.03;5.35;;;;;;;18.81;55.06;99264.81;10393239;28;20235;-69
2023/05/09 12:28:08;;;;;;;5.93;5.03;;;;;;;19.24;55.35;99294.06;10391494;28;20255;-69
2023/05/09 12:33:11;;;;;;;5.70;4.55;;;;;;;18.48;55.88;99276.56;10387246;28;20224;-69
2023/05/09 12:38:14;;;;;;;6.07;5.28;;;;;;;18.92;56.22;99246.78;10392293;28;20240;-66
2023/05/09 12:43:16;;;;;;;8.73;5.10;;;;;;;17.97;57.05;99235.16;10390309;28;20332;-68
2023/05/09 12:48:22;;;;;;;5.03;4.57;;;;;;;18.34;54.65;99200.25;10386066;28;20244;-69
2023/05/09 12:53:26;;;;;;;8.10;4.38;;;;;;;19.53;53.34;99272.94;10392951;28;20228;-67
2023/05/09 12:58:31;;;;;;;4.78;4.35;;;;;;;19.08;53.57;99258.66;10391212;28;20232;-69
2023/05/09 13:03:36;;;;;;;4.38;3.97;;;;;;;19.90;52.07;99258.63;10388959;28;20353;-67
2023/05/09 13:08:39;;;;;;;6.85;4.30;;;;;;;18.52;53.75;99179.34;10387252;28;20232;-67
2023/05/09 13:13:41;;;;;;;3.90;3.60;;;;;;;18.81;54.03;99232.28;10385909;28;20212;-69
2023/05/09 13:18:43;;;;;;;6.20;4.60;;;;;;;19.00;52.70;99205.69;10389210;28;20237;-69
2023/05/09 13:23:44;;;;;;;5.82;4.65;;;;;;;18.72;53.09;99160.63;10386873;28;20296;-69
2023/05/09 13:28:47;;;;;;;5.72;4.00;;;;;;;18.80;53.27;99183.75;10391035;28;20245;-69
2023/05/09 13:33:49;;;;;;;4.47;4.07;;;;;;;18.93;53.40;99190.69;10393719;28;20290;-66
2023/05/09 13:38:52;;;;;;;3.92;3.53;;;;;;;20.29;51.71;99204.06;10384548;28;20237;-68
2023/05/09 13:43:54;;;;;;;3.92;3.63;;;;;;;19.12;51.90;99155.91;10384190;28;20232;-69
2023/05/09 13:48:56;;;;;;;4.68;4.05;;;;;;;20.68;50.45;99201.81;10387366;28;20925;-69
2023/05/09 13:53:57;;;;;;;6.90;4.60;;;;;;;20.22;51.75;99174.41;10382939;28;20235;-69
2023/05/09 13:58:59;;;;;;;5.43;3.60;;;;;;;19.12;53.43;99137.75;10386510;28;20232;-68
2023/05/09 14:04:01;;;;;;;4.78;3.25;;;;;;;19.34;53.15;99153.13;10386825;28;20232;-68
2023/05/09 14:09:03;;;;;;;6.80;3.80;;;;;;;20.20;51.74;99108.69;10386188;28;20248;-68
2023/05/09 14:14:04;;;;;;;4.82;3.55;;;;;;;20.45;51.27;99112.59;10379856;28;20580;-69
2023/05/09 14:19:06;;;;;;;4.20;3.80;;;;;;;19.34;52.27;99060.91;10382930;28;20247;-69
2023/05/09 14:24:09;;;;;;;5.03;3.80;;;;;;;19.42;52.86;99082.13;10385790;28;20238;-66
2023/05/09 14:29:13;;;;;;;5.28;3.80;;;;;;;20.81;50.92;99120.84;10385697;28;20241;-68
2023/05/09 14:34:14;;;;;;;3.80;3.50;;;;;;;20.21;51.09;99056.00;10384461;28;20263;-68
2023/05/09 14:39:16;;;;;;;3.70;3.25;;;;;;;21.24;49.86;99129.63;10387826;28;20236;-68
2023/05/09 14:44:17;;;;;;;3.47;3.20;;;;;;;19.58;52.28;99088.50;10386149;28;20239;-68
2023/05/09 14:49:19;;;;;;;3.50;3.10;;;;;;;20.14;51.82;99041.81;10382526;28;20228;-68
2023/05/09 14:54:21;;;;;;;3.40;3.10;;;;;;;20.44;51.07;99032.97;10386392;28;20247;-69
2023/05/09 14:59:23;;;;;;;3.60;3.30;;;;;;;20.50;51.27;99029.16;10384418;28;20865;-68
2023/05/09 15:04:29;;;;;;;3.83;3.30;;;;;;;19.20;52.55;99012.53;10381919;28;20725;-69
2023/05/09 15:09:31;;;;;;;4.40;3.50;;;;;;;19.67;51.57;99023.69;10382832;28;20274;-68
2023/05/09 15:14:32;;;;;;;5.30;3.28;;;;;;;19.92;51.02;98999.38;10378500;28;21020;-69
2023/05/09 15:19:35;;;;;;;4.22;3.47;;;;;;;19.91;50.68;99011.31;10382728;28;20294;-70
2023/05/09 15:24:37;;;;;;;3.92;3.60;;;;;;;19.49;52.01;99035.78;10430015;22;20239;-40
2023/05/09 15:29:40;;;;;;;4.10;3.70;;;;;;;20.83;49.62;99031.69;10465451;28;20227;-41
2023/05/09 15:34:42;;;;;;;4.93;4.35;;;;;;;20.72;50.55;99011.81;10465136;28;20243;-44
2023/05/09 15:39:44;;;;;;;5.95;4.28;;;;;;;20.12;50.55;98976.88;10468401;28;20323;-44
2023/05/09 15:44:46;;;;;;;5.93;4.40;;;;;;;19.71;51.51;99005.81;10467020;28;20246;-41
2023/05/09 15:49:47;;;;;;;5.72;3.90;;;;;;;19.26;51.33;98944.78;10468543;28;20612;-41
2023/05/09 15:54:49;;;;;;;4.90;3.70;;;;;;;20.13;51.44;99011.13;10475170;28;20242;-40
2023/05/09 15:59:54;;;;;;;5.72;4.32;;;;;;;20.00;51.20;98965.47;10474130;28;20281;-43
2023/05/09 16:04:55;;;;;;;6.55;4.55;;;;;;;19.57;52.54;98976.44;10478848;28;20235;-43
2023/05/09 16:09:57;;;;;;;5.28;4.60;;;;;;;20.26;51.47;98990.00;10470167;28;20885;-41
2023/05/09 16:14:59;;;;;;;5.20;4.70;;;;;;;19.94;52.27;98945.63;10470006;28;20242;-41
2023/05/09 16:20:01;;;;;;;6.88;6.10;;;;;;;20.21;52.27;98957.38;10469609;28;20314;-41
2023/05/09 16:25:03;;;;;;;6.75;5.97;;;;;;;19.57;53.49;98956.63;10477316;28;20235;-41
2023/05/09 16:30:05;;;;;;;7.40;4.78;;;;;;;18.52;55.83;98976.19;10468881;28;20223;-41
2023/05/09 16:35:08;;;;;;;3.63;3.30;;;;;;;19.80;51.32;98989.81;10476820;28;20582;-41
2023/05/09 16:40:11;;;;;;;5.05;3.00;;;;;;;17.84;54.02;98992.75;10475332;28;20223;-42
2023/05/09 16:45:12;;;;;;;3.47;3.17;;;;;;;17.75;55.15;99024.00;10471622;28;20234;-41
2023/05/09 16:50:14;;;;;;;4.97;3.13;;;;;;;15.77;59.37;98941.81;10472046;28;20884;-41
2023/05/09 16:55:16;;;;;;;2.85;2.30;;;;;;;15.28;60.82;98987.13;10474791;28;20289;-42
2023/05/09 17:00:18;;;;;;;2.70;2.50;;;;;;;16.62;59.01;99083.28;10473259;28;20238;-42
2023/05/09 17:05:20;;;;;;;3.30;2.07;;;;;;;15.13;60.78;99012.69;10473881;28;20242;-43
2023/05/09 17:10:22;;;;;;;2.50;2.10;;;;;;;15.74;59.86;99060.16;10475790;28;20227;-41
2023/05/09 17:15:24;;;;;;;3.20;2.20;;;;;;;16.42;58.47;99050.50;10473368;28;20250;-42
2023/05/09 17:20:27;;;;;;;2.77;2.57;;;;;;;15.90;59.70;99042.44;10473655;28;20231;-44
2023/05/09 17:25:29;;;;;;;3.00;2.70;;;;;;;16.62;59.80;99109.50;10472850;28;20727;-43
2023/05/09 17:30:31;;;;;;;2.80;2.60;;;;;;;17.05;58.46;99091.91;10473905;28;20821;-41
2023/05/09 17:35:32;;;;;;;3.77;2.93;;;;;;;16.49;59.66;99078.19;10469348;28;20239;-42
2023/05/09 17:40:34;;;;;;;5.83;3.60;;;;;;;16.45;60.59;99109.44;10475292;28;20677;-42
2023/05/09 17:45:36;;;;;;;4.27;3.87;;;;;;;15.88;61.60;99073.16;10474559;28;20231;-44
2023/05/09 17:50:38;;;;;;;4.43;4.03;;;;;;;16.73;60.89;99124.00;10468194;28;20231;-42
2023/05/09 17:55:41;;;;;;;4.50;4.10;;;;;;;17.26;58.69;99093.09;10472911;28;20728;-43
2023/05/09 18:00:43;;;;;;;2.70;2.50;;;;;;;16.42;59.03;99077.50;10473820;28;20238;-42
2023/05/09 18:05:45;;;;;;;2.30;2.10;;;;;;;15.72;60.95;99116.22;10470639;28;20589;-43
2023/05/09 18:10:47;;;;;;;2.60;2.40;;;;;;;16.45;59.20;99136.44;10473192;28;20232;-45
2023/05/09 18:15:48;;;;;;;2.60;2.20;;;;;;;16.61;59.07;99151.88;10472658;28;20246;-41
2023/05/09 18:20:50;;;;;;;2.77;2.27;;;;;;;16.90;57.78;99134.84;10472617;28;20242;-41
2023/05/09 18:25:53;;;;;;;3.20;2.50;;;;;;;15.80;60.15;99086.19;10469181;28;20819;-42
2023/05/09 18:30:56;;;;;;;4.00;2.70;;;;;;;17.14;57.45;99132.88;10471216;28;20228;-42
2023/05/09 18:35:59;;;;;;;2.90;2.70;;;;;;;16.79;58.30;99131.97;10471564;28;20777;-41
2023/05/09 18:41:00;;;;;;;3.27;3.07;;;;;;;16.28;58.24;99076.13;10468419;28;20231;-42
2023/05/09 18:46:02;;;;;;;3.27;2.77;;;;;;;16.75;57.91;99102.97;10472133;28;20668;-44
2023/05/09 18:51:04;;;;;;;3.20;2.90;;;;;;;16.80;58.12;99120.09;10472133;28;20542;-41
2023/05/09 18:56:06;;;;;;;3.20;2.90;;;;;;;17.20;56.99;99131.09;10463883;28;20392;-42
2023/05/09 19:01:10;;;;;;;3.50;3.20;;;;;;;18.08;55.46;99156.56;10470678;28;20837;-42
2023/05/09 19:06:13;;;;;;;3.20;2.90;;;;;;;18.27;54.05;99108.34;10466571;28;20245;-44
2023/05/09 19:11:15;;;;;;;6.00;2.50;;;;;;;17.03;56.45;99063.50;10471423;28;20223;-43
2023/05/09 19:16:18;;;;;;;3.33;3.03;;;;;;;17.46;57.01;99124.19;10467153;28;20239;-42
2023/05/09 19:21:20;;;;;;;4.00;3.13;;;;;;;16.89;56.85;99092.69;10470261;28;20241;-42
2023/05/09 19:26:22;;;;;;;3.13;2.93;;;;;;;16.37;58.31;99080.13;10473605;28;20242;-43
2023/05/09 19:31:24;;;;;;;4.20;3.00;;;;;;;17.14;56.66;99106.69;10475387;28;20222;-41
2023/05/09 19:36:26;;;;;;;3.53;2.90;;;;;;;16.69;57.47;99103.94;10474010;28;20603;-42
2023/05/09 19:41:28;;;;;;;6.30;3.43;;;;;;;16.68;57.71;99100.41;10479973;28;20231;-43
2023/05/09 19:46:29;;;;;;;2.90;2.60;;;;;;;16.33;58.51;99085.19;10472109;28;20235;-44
2023/05/09 19:51:31;;;;;;;4.90;2.80;;;;;;;16.01;58.89;99068.53;10477899;28;20255;-42
2023/05/09 19:56:33;;;;;;;2.97;2.67;;;;;;;16.38;58.73;99104.19;10466299;28;20231;-42
2023/05/09 20:01:34;;;;;;;3.10;2.80;;;;;;;16.42;58.81;99123.41;10479389;28;20238;-44
2023/05/09 20:06:36;;;;;;;4.03;2.87;;;;;;;15.76;59.93;99079.59;10465556;28;20330;-41
2023/05/09 20:11:38;;;;;;;3.10;2.80;;;;;;;16.91;57.98;99150.00;10475432;28;20601;-43
2023/05/09 20:16:41;;;;;;;3.13;2.80;;;;;;;17.15;57.26;99145.34;10474010;28;20230;-41
2023/05/09 20:21:43;;;;;;;3.47;2.97;;;;;;;16.16;58.92;99100.44;10465926;28;20728;-43
2023/05/09 20:26:44;;;;;;;3.53;3.00;;;;;;;16.24;59.67;99130.56;10471300;28;20235;-43
2023/05/09 20:31:46;;;;;;;4.80;2.97;;;;;;;15.88;60.03;99099.31;10472894;28;20910;-41
2023/05/09 20:36:52;;;;;;;3.57;3.27;;;;;;;15.80;60.82;99096.97;10469637;28;20251;-41
2023/05/09 20:41:54;;;;;;;3.77;3.43;;;;;;;14.70;63.21;99043.34;10478258;28;20219;-42
2023/05/09 20:46:56;;;;;;;4.17;3.60;;;;;;;16.20;59.86;99118.63;10476420;28;20239;-43
2023/05/09 20:51:58;;;;;;;4.20;3.33;;;;;;;15.33;61.51;99103.97;10473781;28;20228;-41
2023/05/09 20:57:00;;;;;;;4.10;3.70;;;;;;;15.73;61.44;99140.25;10469667;28;20235;-43
2023/05/09 21:02:01;;;;;;;4.80;3.47;;;;;;;15.49;62.54;99151.00;10474842;28;20230;-41
2023/05/09 21:07:03;;;;;;;4.83;3.57;;;;;;;15.01;63.67;99151.91;10476953;28;20601;-43
2023/05/09 21:12:05;;;;;;;4.43;4.03;;;;;;;14.49;64.42;99122.78;10471743;28;20235;-42
2023/05/09 21:17:08;;;;;;;3.83;3.27;;;;;;;15.12;62.53;99158.41;10476233;28;20231;-41
2023/05/09 21:22:10;;;;;;;4.03;2.80;;;;;;;14.35;63.23;99135.53;10473896;28;20227;-41
2023/05/09 21:27:11;;;;;;;2.13;1.87;;;;;;;14.53;61.71;99172.41;10472147;28;20243;-41
2023/05/09 21:32:13;;;;;;;2.20;2.07;;;;;;;15.27;59.60;99185.75;10474537;28;20223;-40
2023/05/09 21:37:15;;;;;;;2.27;2.07;;;;;;;14.28;60.54;99117.84;10470864;28;20242;-41
2023/05/09 21:42:17;;;;;;;2.10;1.70;;;;;;;14.93;59.80;99206.97;10469562;28;20290;-40
2023/05/09 21:47:18;;;;;;;2.20;1.80;;;;;;;14.31;60.98;99172.03;10473071;28;20231;-41
2023/05/09 21:52:22;;;;;;;3.07;2.13;;;;;;;15.60;59.12;99227.56;10473770;28;20239;-40
2023/05/09 21:57:24;;;;;;;3.70;1.80;;;;;;;13.78;62.53;99145.66;10475175;28;20259;-41
2023/05/09 22:02:27;;;;;;;2.07;1.97;;;;;;;14.52;60.69;99205.75;10471193;28;20230;-40
2023/05/09 22:07:29;;;;;;;1.90;1.80;;;;;;;15.60;58.63;99265.34;10472661;28;20330;-41
2023/05/09 22:12:31;;;;;;;2.17;1.97;;;;;;;15.59;57.90;99231.34;10473216;28;20231;-40
2023/05/09 22:17:33;;;;;;;2.00;1.80;;;;;;;14.21;60.86;99187.88;10470832;28;20235;-41
2023/05/09 22:22:35;;;;;;;2.17;2.07;;;;;;;14.01;61.12;99194.25;10471739;28;20309;-41
2023/05/09 22:27:36;;;;;;;3.13;2.73;;;;;;;14.73;59.95;99236.81;10471277;28;20921;-40
2023/05/09 22:32:38;;;;;;;2.10;2.00;;;;;;;14.56;60.22;99249.19;10473409;28;20740;-39
2023/05/09 22:37:40;;;;;;;2.00;1.90;;;;;;;14.14;60.48;99230.19;10472215;28;20239;-40
2023/05/09 22:42:42;;;;;;;2.17;2.07;;;;;;;13.98;59.78;99210.00;10471800;28;20304;-41
2023/05/09 22:47:44;;;;;;;2.00;1.90;;;;;;;14.20;60.31;99257.00;10472457;28;20242;-41
2023/05/09 22:52:45;;;;;;;1.80;1.70;;;;;;;13.51;60.38;99210.38;10460863;28;20296;-40
2023/05/09 22:57:47;;;;;;;2.20;2.10;;;;;;;14.95;58.98;99318.00;10469964;28;20242;-40
2023/05/09 23:02:49;;;;;;;2.50;1.67;;;;;;;14.25;60.00;99279.75;10468387;28;20242;-41
2023/05/09 23:07:51;;;;;;;2.00;1.90;;;;;;;14.53;59.49;99309.72;10472475;28;20604;-41
2023/05/09 23:12:52;;;;;;;2.17;2.07;;;;;;;14.63;58.86;99298.44;10467916;28;20236;-41
2023/05/09 23:17:54;;;;;;;2.03;1.90;;;;;;;14.69;58.13;99284.06;10470474;28;20235;-39
2023/05/09 23:22:56;;;;;;;3.60;2.10;;;;;;;14.11;59.90;99269.09;10472414;28;20223;-40